createdAt,value
2017-09-24T00:04:05.495Z,1024.6
2017-09-24T00:09:10.552Z,1024.6
2017-09-24T00:14:15.277Z,1024.6
2017-09-24T00:19:20.003Z,1024.6
2017-09-24T00:24:25.064Z,1024.5
2017-09-24T00:29:30.458Z,1024.5
2017-09-24T00:34:35.183Z,1024.4
2017-09-24T00:39:40.244Z,1024.4
2017-09-24T00:44:45.973Z,1024.4
2017-09-24T00:49:50.362Z,1024.4
2017-09-24T00:54:56.092Z,1024.4
2017-09-24T01:00:01.157Z,1024.4
2017-09-24T01:05:06.218Z,1024.4
2017-09-24T01:10:10.947Z,1024.4
2017-09-24T01:15:15.340Z,1024.3
2017-09-24T01:20:20.736Z,1024.3
2017-09-24T01:25:26.464Z,1024.3
2017-09-24T01:30:30.851Z,1024.3
2017-09-24T01:35:35.913Z,1024.3
2017-09-24T01:40:40.640Z,1024.3
2017-09-24T01:45:46.031Z,1024.3
2017-09-24T01:50:52.091Z,1024.2
2017-09-24T01:55:57.483Z,1024.3
2017-09-24T02:01:02.874Z,1024.3
2017-09-24T02:06:07.934Z,1024.3
2017-09-24T02:11:12.661Z,1024.3
2017-09-24T02:16:17.382Z,1024.3
2017-09-24T02:21:21.772Z,1024.3
2017-09-24T02:26:27.166Z,1024.3
2017-09-24T02:31:32.225Z,1024.3
2017-09-24T02:36:37.957Z,1024.2
2017-09-24T02:41:43.352Z,1024.2
2017-09-24T02:46:48.746Z,1024.2
2017-09-24T02:51:53.804Z,1024.2
2017-09-24T02:56:58.862Z,1024.1
2017-09-24T03:02:03.920Z,1024.2
2017-09-24T03:07:08.646Z,1024.2
2017-09-24T03:12:13.702Z,1024.1
2017-09-24T03:17:18.760Z,1024.1
2017-09-24T03:22:24.152Z,1024
2017-09-24T03:27:28.872Z,1024
2017-09-24T03:32:34.600Z,1023.9
2017-09-24T03:37:39.658Z,1023.9
2017-09-24T03:42:44.379Z,1023.8
2017-09-24T03:47:48.435Z,1023.9
2017-09-24T03:52:53.823Z,1024
2017-09-24T03:57:58.207Z,1024.2
2017-09-24T04:03:02.931Z,1024.1
2017-09-24T04:08:07.986Z,1024.1
2017-09-24T04:13:13.382Z,1024.1
2017-09-24T04:18:18.102Z,1024.1
2017-09-24T04:23:23.163Z,1024.2
2017-09-24T04:28:27.552Z,1024.1
2017-09-24T04:33:32.945Z,1024.2
2017-09-24T04:38:38.003Z,1024.2
2017-09-24T04:43:43.397Z,1024.2
2017-09-24T04:48:48.795Z,1024.3
2017-09-24T04:53:53.183Z,1024.3
2017-09-24T04:58:57.903Z,1024.3
2017-09-24T05:04:02.625Z,1024.3
2017-09-24T05:09:08.015Z,1024.3
2017-09-24T05:14:12.739Z,1024.2
2017-09-24T05:19:17.462Z,1024.2
2017-09-24T05:24:22.854Z,1024.2
2017-09-24T05:29:28.248Z,1024.2
2017-09-24T05:34:34.008Z,1024.2
2017-09-24T05:39:39.035Z,1024.3
2017-09-24T05:44:44.763Z,1024.2
2017-09-24T05:49:49.827Z,1024.2
2017-09-24T05:54:54.547Z,1024.2
2017-09-24T05:59:59.940Z,1024.1
2017-09-24T06:05:04.999Z,1024.1
2017-09-24T06:10:10.732Z,1024.2
2017-09-24T06:15:15.458Z,1024.3
2017-09-24T06:20:20.519Z,1024.3
2017-09-24T06:25:25.242Z,1024.3
2017-09-24T06:30:30.971Z,1024.4
2017-09-24T06:35:36.703Z,1024.3
2017-09-24T06:40:41.761Z,1024.3
2017-09-24T06:45:47.494Z,1024.3
2017-09-24T06:50:52.556Z,1024.3
2017-09-24T06:55:57.280Z,1024.5
2017-09-24T07:01:01.689Z,1024.5
2017-09-24T07:06:07.133Z,1024.5
2017-09-24T07:11:12.595Z,1024.5
2017-09-24T07:16:18.370Z,1024.5
2017-09-24T07:21:23.099Z,1024.5
2017-09-24T07:26:28.505Z,1024.5
2017-09-24T07:31:33.908Z,1024.6
2017-09-24T07:36:39.014Z,1024.6
2017-09-24T07:41:43.743Z,1024.6
2017-09-24T07:46:49.149Z,1024.7
2017-09-24T07:51:54.214Z,1024.6
2017-09-24T07:56:59.318Z,1024.6
2017-09-24T08:02:04.721Z,1024.6
2017-09-24T08:07:10.810Z,1024.6
2017-09-24T08:12:16.881Z,1024.6
2017-09-24T08:17:22.617Z,1024.7
2017-09-24T08:22:27.684Z,1024.6
2017-09-24T08:27:32.744Z,1024.6
2017-09-24T08:32:37.824Z,1024.5
2017-09-24T08:37:43.224Z,1024.6
2017-09-24T08:42:47.951Z,1024.6
2017-09-24T08:47:53.012Z,1024.6
2017-09-24T08:52:58.426Z,1024.6
2017-09-24T08:58:02.826Z,1024.7
2017-09-24T09:03:07.888Z,1024.6
2017-09-24T09:08:12.957Z,1024.7
2017-09-24T09:13:18.027Z,1024.7
2017-09-24T09:18:23.770Z,1024.7
2017-09-24T09:23:29.500Z,1024.7
2017-09-24T09:28:35.245Z,1024.7
2017-09-24T09:33:39.969Z,1024.7
2017-09-24T09:38:45.368Z,1024.7
2017-09-24T09:43:51.131Z,1024.8
2017-09-24T09:48:56.835Z,1024.8
2017-09-24T09:54:02.230Z,1024.8
2017-09-24T09:59:07.627Z,1024.9
2017-09-24T10:04:13.021Z,1024.9
2017-09-24T10:09:18.415Z,1025
2017-09-24T10:14:23.813Z,1024.9
2017-09-24T10:19:29.209Z,1024.9
2017-09-24T10:24:33.937Z,1024.9
2017-09-24T10:29:38.328Z,1024.9
2017-09-24T10:34:43.051Z,1024.9
2017-09-24T10:39:48.116Z,1024.8
2017-09-24T10:44:53.509Z,1024.8
2017-09-24T10:49:58.237Z,1024.7
2017-09-24T10:55:03.628Z,1024.7
2017-09-24T11:00:08.357Z,1024.7
2017-09-24T11:05:13.413Z,1024.7
2017-09-24T11:10:18.144Z,1024.7
2017-09-24T11:15:22.537Z,1024.7
2017-09-24T11:20:27.936Z,1024.7
2017-09-24T11:25:33.023Z,1024.7
2017-09-24T11:30:38.414Z,1024.7
2017-09-24T11:35:42.469Z,1024.8
2017-09-24T11:40:47.885Z,1024.7
2017-09-24T11:45:52.954Z,1024.7
2017-09-24T11:50:58.368Z,1024.8
2017-09-24T11:56:03.096Z,1024.8
2017-09-24T12:01:07.489Z,1024.8
2017-09-24T12:06:12.552Z,1024.8
2017-09-24T12:11:18.634Z,1024.9
2017-09-24T12:16:24.042Z,1024.9
2017-09-24T12:21:29.436Z,1024.9
2017-09-24T12:26:34.829Z,1024.9
2017-09-24T12:31:40.229Z,1024.8
2017-09-24T12:36:45.958Z,1024.9
2017-09-24T12:41:51.369Z,1024.9
2017-09-24T12:46:56.768Z,1024.9
2017-09-24T12:52:01.834Z,1024.9
2017-09-24T12:57:06.896Z,1025
2017-09-24T13:02:12.293Z,1025
2017-09-24T13:07:18.025Z,1024.9
2017-09-24T13:12:23.424Z,1024.9
2017-09-24T13:17:28.826Z,1024.9
2017-09-24T13:22:34.220Z,1024.9
2017-09-24T13:27:39.283Z,1024.9
2017-09-24T13:32:45.012Z,1024.9
2017-09-24T13:37:49.754Z,1024.8
2017-09-24T13:42:54.821Z,1024.8
2017-09-24T13:47:59.892Z,1024.7
2017-09-24T13:53:05.282Z,1024.7
2017-09-24T13:58:10.012Z,1024.7
2017-09-24T14:03:15.075Z,1024.7
2017-09-24T14:08:20.476Z,1024.7
2017-09-24T14:13:25.535Z,1024.8
2017-09-24T14:18:31.269Z,1024.8
2017-09-24T14:23:35.670Z,1024.8
2017-09-24T14:28:40.736Z,1024.8
2017-09-24T14:33:45.801Z,1024.8
2017-09-24T14:38:51.204Z,1024.7
2017-09-24T14:43:56.670Z,1024.8
2017-09-24T14:49:02.850Z,1024.7
2017-09-24T14:54:08.623Z,1024.7
2017-09-24T14:59:14.165Z,1024.7
2017-09-24T15:04:19.821Z,1024.8
2017-09-24T15:09:25.236Z,1024.7
2017-09-24T15:14:29.636Z,1024.7
2017-09-24T15:19:35.049Z,1024.7
2017-09-24T15:24:40.117Z,1024.7
2017-09-24T15:29:45.528Z,1024.7
2017-09-24T15:34:51.465Z,1024.6
2017-09-24T15:39:57.107Z,1024.7
2017-09-24T15:45:02.524Z,1024.7
2017-09-24T15:50:08.601Z,1024.7
2017-09-24T15:55:14.017Z,1024.6
2017-09-24T16:00:19.429Z,1024.7
2017-09-24T16:05:24.518Z,1024.7
2017-09-24T16:10:29.929Z,1024.8
2017-09-24T16:15:36.018Z,1024.8
2017-09-24T16:20:41.776Z,1024.9
2017-09-24T16:25:46.516Z,1025
2017-09-24T16:30:51.923Z,1024.9
2017-09-24T16:35:57.678Z,1024.9
2017-09-24T16:41:02.746Z,1025
2017-09-24T16:46:07.487Z,1025
2017-09-24T16:51:13.223Z,1025.1
2017-09-24T16:56:17.950Z,1025.1
2017-09-24T17:01:22.698Z,1025
2017-09-24T17:06:28.102Z,1025
2017-09-24T17:11:33.512Z,1025
2017-09-24T17:16:38.611Z,1025.1
2017-09-24T17:21:43.000Z,1025.1
2017-09-24T17:26:48.416Z,1025.2
2017-09-24T17:31:53.818Z,1025.2
2017-09-24T17:36:57.876Z,1025.1
2017-09-24T17:42:03.291Z,1025.2
2017-09-24T17:47:08.688Z,1025.2
2017-09-24T17:52:13.756Z,1025.2
2017-09-24T17:57:18.815Z,1025.2
2017-09-24T18:02:23.887Z,1025.2
2017-09-24T18:07:28.961Z,1025.3
2017-09-24T18:12:34.369Z,1025.3
2017-09-24T18:17:40.117Z,1025.3
2017-09-24T18:22:45.184Z,1025.3
2017-09-24T18:27:50.917Z,1025.3
2017-09-24T18:32:56.318Z,1025.3
2017-09-24T18:38:01.820Z,1025.4
2017-09-24T18:43:06.862Z,1025.4
2017-09-24T18:48:12.062Z,1025.5
2017-09-24T18:53:16.774Z,1025.5
2017-09-24T18:58:21.843Z,1025.5
2017-09-24T19:03:26.917Z,1025.5
2017-09-24T19:08:32.655Z,1025.6
2017-09-24T19:13:37.396Z,1025.5
2017-09-24T19:18:41.793Z,1025.4
2017-09-24T19:23:47.193Z,1025.4
2017-09-24T19:28:51.599Z,1025.4
2017-09-24T19:33:56.678Z,1025.5
2017-09-24T19:39:02.098Z,1025.5
2017-09-24T19:44:07.179Z,1025.6
2017-09-24T19:49:11.910Z,1025.5
2017-09-24T19:54:17.319Z,1025.5
2017-09-24T19:59:22.392Z,1025.6
2017-09-24T20:04:27.459Z,1025.6
2017-09-24T20:09:32.538Z,1025.6
2017-09-24T20:14:37.956Z,1025.6
2017-09-24T20:19:42.701Z,1025.6
2017-09-24T20:24:47.099Z,1025.7
2017-09-24T20:29:52.186Z,1025.7
2017-09-24T20:34:57.263Z,1025.8
2017-09-24T20:40:02.679Z,1025.7
2017-09-24T20:45:08.422Z,1025.7
2017-09-24T20:50:13.155Z,1025.7
2017-09-24T20:55:18.568Z,1025.8
2017-09-24T21:00:23.978Z,1025.8
2017-09-24T21:05:29.716Z,1025.8
2017-09-24T21:10:34.474Z,1025.9
2017-09-24T21:15:39.877Z,1025.9
2017-09-24T21:20:45.281Z,1025.9
2017-09-24T21:25:50.016Z,1026
2017-09-24T21:30:54.747Z,1026
2017-09-24T21:36:00.150Z,1026
2017-09-24T21:41:04.876Z,1025.9
2017-09-24T21:46:09.599Z,1025.9
2017-09-24T21:51:14.665Z,1025.9
2017-09-24T21:56:19.389Z,1026
2017-09-24T22:01:24.464Z,1026
2017-09-24T22:06:29.531Z,1025.9
2017-09-24T22:11:35.264Z,1026
2017-09-24T22:16:39.987Z,1026
2017-09-24T22:21:44.374Z,1026
2017-09-24T22:26:50.106Z,1026
2017-09-24T22:31:54.838Z,1026
2017-09-24T22:37:00.576Z,1026
2017-09-24T22:42:05.967Z,1026
2017-09-24T22:47:11.366Z,1025.9
2017-09-24T22:52:16.762Z,1025.9
2017-09-24T22:57:22.494Z,1025.9
2017-09-24T23:02:27.231Z,1025.9
2017-09-24T23:07:32.625Z,1025.8
2017-09-24T23:12:38.019Z,1025.8
2017-09-24T23:17:43.415Z,1025.9
2017-09-24T23:22:49.145Z,1025.9
2017-09-24T23:27:54.209Z,1025.9
2017-09-24T23:32:59.938Z,1025.8
2017-09-24T23:38:05.333Z,1025.7
2017-09-24T23:43:10.395Z,1025.7
2017-09-24T23:48:15.122Z,1025.6
2017-09-24T23:53:20.181Z,1025.6
2017-09-24T23:58:25.578Z,1025.6
